Home   Weather   Uzbekistan   Tashkent   Past weeks
Flag for Uzbekistan

Past Weather in Tashkent, Uzbekistan — Yesterday and Last 2 Weeks

Currently: 59 °F. Clear. (Weather station: Tashkent, Uzbekistan). See more current weather

Past Weather in Tashkent — Graph

°F

Tashkent Temperature Yesterday

Maximum temperature yesterday: 79 °F (at 3:00 pm)
Minimum temperature yesterday: 54 °F (at 5:30 am)
Average temperature yesterday: 66 °F

High & Low Weather Summary for the Past Weeks

 TemperatureHumidityPressure
High79 °F (Apr 11, 3:00 pm)100% (Apr 13, 10:00 pm)30.27 "Hg (Apr 13, 10:00 pm)
Low45 °F (Apr 7, 2:30 am)18% (Apr 8, 12:00 pm)29.74 "Hg (Apr 19, 3:00 am)
Average62 °F64%30.02 "Hg
* Reported Apr 4 4:00 am — Apr 19 4:00 am, Tashkent. Weather by CustomWeather, © 2024

Note: Actual official high and low records may vary slightly from our data, if they occured in-between our weather recording intervals... More about our weather records

Tashkent Weather History for the Previous 24 Hours

Scroll right to see more
 ConditionsComfort  
Time TempWeatherWind HumidityBarometerVisibility
4:00 am
Fri, Apr 19
57 °FClear.2 mph82%29.74 "Hg10 mi
3:30 am59 °FClear.2 mph77%29.74 "Hg10 mi
3:00 am57 °FClear.5 mph82%29.74 "Hg10 mi
2:30 am57 °FClear.7 mph77%29.77 "Hg10 mi
1:30 am59 °FClear.5 mph72%29.77 "Hg10 mi
1:00 am59 °FClear.5 mph77%29.77 "Hg10 mi
12:30 am63 °FClear.9 mph68%29.77 "Hg10 mi
12:00 am61 °FClear.7 mph72%29.77 "Hg10 mi
11:30 pm
Thu, Apr 18
61 °FClear.5 mph72%29.77 "Hg10 mi
11:00 pm61 °FClear.7 mph72%29.77 "Hg10 mi
10:30 pm63 °FClear.7 mph68%29.80 "Hg10 mi
10:00 pm64 °FClear.5 mph64%29.80 "Hg10 mi
9:30 pm68 °FClear.2 mph53%29.80 "Hg10 mi
9:00 pm68 °FClear.2 mph53%29.80 "Hg10 mi
8:30 pm70 °FClear.5 mph50%29.80 "Hg10 mi
8:00 pm72 °FClear.5 mph47%29.80 "Hg10 mi
7:00 pm72 °FSunny.7 mph47%29.80 "Hg10 mi
6:30 pm75 °FPassing clouds.9 mph39%29.80 "HgN/A
6:00 pm75 °FPassing clouds.9 mph39%29.80 "HgN/A
5:30 pm77 °FPassing clouds.9 mph32%29.80 "HgN/A
5:00 pm77 °FPassing clouds.9 mph34%29.80 "HgN/A
4:30 pm77 °FPassing clouds.9 mph39%29.83 "HgN/A
4:00 pm77 °FPassing clouds.9 mph39%29.83 "HgN/A
3:30 pm77 °FPassing clouds.9 mph39%29.83 "HgN/A
3:00 pm79 °FPassing clouds.9 mph34%29.83 "HgN/A
2:30 pm77 °FPassing clouds.7 mph36%29.86 "HgN/A
2:00 pm77 °FPassing clouds.7 mph42%29.86 "HgN/A
1:30 pm77 °FPassing clouds.12 mph42%29.89 "HgN/A
1:00 pm75 °FPassing clouds.9 mph41%29.89 "HgN/A
12:30 pm75 °FPassing clouds.9 mph41%29.89 "HgN/A
12:00 pm75 °FPassing clouds.7 mph44%29.89 "HgN/A
11:30 am73 °FPassing clouds.5 mph47%29.92 "HgN/A
11:00 am72 °FPassing clouds.7 mph47%29.92 "HgN/A
10:30 am72 °FPassing clouds.5 mph47%29.92 "HgN/A
10:00 am70 °FPassing clouds.5 mph53%29.95 "HgN/A
9:30 am68 °FSunny.5 mph53%29.95 "Hg10 mi
9:00 am66 °FSunny.2 mph56%29.95 "Hg10 mi
8:30 am66 °FSunny.No wind56%29.95 "Hg10 mi
8:00 am64 °FSunny.2 mph60%29.95 "Hg10 mi
7:30 am61 °FSunny.5 mph68%29.95 "Hg10 mi
7:00 am57 °FSunny.5 mph77%29.95 "Hg10 mi
6:30 am55 °FSunny.5 mph77%29.95 "Hg10 mi
6:00 am54 °FPassing clouds.5 mph82%29.95 "HgN/A
5:30 am54 °FClear.7 mph82%29.95 "Hg10 mi
5:00 am57 °FPassing clouds.7 mph72%29.95 "HgN/A
Weather by CustomWeather, © 2024

See weather overview